^^
Datos históricos de la estación: Murcia-Puente Tocinos
Diario Informe para Agosto 3, 2019 Unidades:  Métrico    Inglés   Ambas
Diario Semanal Mensual Anual Configurable
  Máximo: Mínimo: Media:
Temperatura: 31.6 °C 24.1 °C 27.4 °C
Punto de rocio: 22.0 °C 16.9 °C 20.2 °C
Humedad: 84% 44% 67%
Velocidad viento: 18.3km/h 0.0km/h 8.4km/h
Racha viento: 29.6km/h - -
Viento- - East
Presión: 1013.9 hPa 1010.0 hPa -
Precipitación: 0.0 mm    
Historical Graphs
 
 
Tabla de datos para Agosto 3, 2019
Hora Temperatura Punto de rocio Presión Viento Velocidad viento Racha viento Humedad Intensidad lluvia(por hora) Nubes
00:04 25.8 °C 21.7 °C 1013.4 hPa NE 8.4 km/h 13.0 km/h 78% 0.0 mm CLR
00:09 25.8 °C 21.9 °C 1013.4 hPa NE 9.5 km/h 13.0 km/h 79% 0.0 mm CLR
00:14 25.7 °C 22.0 °C 1013.4 hPa NE 9.5 km/h 14.8 km/h 80% 0.0 mm CLR
00:19 25.6 °C 21.9 °C 1013.4 hPa NE 10.3 km/h 18.5 km/h 80% 0.0 mm CLR
00:24 25.5 °C 22.0 °C 1013.4 hPa NE 10.3 km/h 13.0 km/h 81% 0.0 mm CLR
00:29 25.4 °C 21.9 °C 1013.4 hPa NE 10.0 km/h 13.0 km/h 81% 0.0 mm CLR
00:34 25.4 °C 21.9 °C 1013.5 hPa ENE 10.0 km/h 13.7 km/h 81% 0.0 mm CLR
00:39 25.3 °C 21.8 °C 1013.5 hPa NNE 10.0 km/h 11.9 km/h 81% 0.0 mm CLR
00:44 25.3 °C 21.8 °C 1013.5 hPa ENE 10.0 km/h 11.1 km/h 81% 0.0 mm CLR
00:49 25.3 °C 22.0 °C 1013.6 hPa NE 9.5 km/h 11.1 km/h 82% 0.0 mm CLR
00:54 25.3 °C 22.0 °C 1013.6 hPa NNE 9.5 km/h 11.1 km/h 82% 0.0 mm CLR
00:59 25.3 °C 22.0 °C 1013.6 hPa ENE 9.5 km/h 16.7 km/h 82% 0.0 mm CLR
01:04 25.2 °C 21.9 °C 1013.5 hPa NE 9.5 km/h 13.0 km/h 82% 0.0 mm CLR
01:09 25.2 °C 21.9 °C 1013.5 hPa NE 10.0 km/h 16.7 km/h 82% 0.0 mm CLR
01:14 25.2 °C 21.9 °C 1013.5 hPa NE 10.0 km/h 11.1 km/h 82% 0.0 mm CLR
01:19 25.2 °C 21.9 °C 1013.5 hPa NE 8.7 km/h 7.4 km/h 82% 0.0 mm CLR
01:24 25.3 °C 22.0 °C 1013.5 hPa NNE 8.7 km/h 11.1 km/h 82% 0.0 mm CLR
01:29 25.2 °C 21.9 °C 1013.5 hPa ENE 6.9 km/h 8.4 km/h 82% 0.0 mm CLR
01:34 25.2 °C 21.9 °C 1013.4 hPa ENE 6.9 km/h 7.4 km/h 82% 0.0 mm CLR
01:39 25.2 °C 21.9 °C 1013.4 hPa ENE 5.0 km/h 7.4 km/h 82% 0.0 mm CLR
01:44 25.3 °C 21.8 °C 1013.4 hPa East 5.0 km/h 9.3 km/h 81% 0.0 mm CLR
01:49 25.3 °C 21.8 °C 1013.3 hPa NE 4.7 km/h 5.6 km/h 81% 0.0 mm CLR
01:54 25.3 °C 21.8 °C 1013.3 hPa NE 4.7 km/h 7.4 km/h 81% 0.0 mm CLR
01:59 25.3 °C 21.8 °C 1013.3 hPa NNE 5.0 km/h 7.4 km/h 81% 0.0 mm CLR
02:04 25.2 °C 21.7 °C 1013.1 hPa NE 5.0 km/h 7.4 km/h 81% 0.0 mm CLR
02:09 25.2 °C 21.7 °C 1013.1 hPa NE 4.7 km/h 7.4 km/h 81% 0.0 mm CLR
02:14 25.2 °C 21.7 °C 1013.1 hPa NE 4.7 km/h 9.3 km/h 81% 0.0 mm CLR
02:19 25.1 °C 21.8 °C 1013.0 hPa ENE 6.9 km/h 13.0 km/h 82% 0.0 mm CLR
02:24 25.1 °C 21.8 °C 1013.0 hPa East 6.9 km/h 11.1 km/h 82% 0.0 mm CLR
02:29 25.0 °C 21.7 °C 1013.0 hPa East 6.4 km/h 7.4 km/h 82% 0.0 mm CLR
02:34 25.0 °C 21.7 °C 1012.9 hPa NE 6.4 km/h 9.3 km/h 82% 0.0 mm CLR
02:39 24.9 °C 21.6 °C 1012.9 hPa NE 5.0 km/h 7.4 km/h 82% 0.0 mm CLR
02:44 24.9 °C 21.6 °C 1012.9 hPa NNE 5.0 km/h 7.4 km/h 82% 0.0 mm CLR
02:49 24.9 °C 21.6 °C 1012.8 hPa North 3.9 km/h 5.8 km/h 82% 0.0 mm CLR
02:54 24.9 °C 21.6 °C 1012.8 hPa North 3.9 km/h 3.7 km/h 82% 0.0 mm CLR
02:59 24.9 °C 21.6 °C 1012.8 hPa NNE 2.3 km/h 3.7 km/h 82% 0.0 mm CLR
03:04 24.9 °C 21.6 °C 1012.7 hPa NNE 2.3 km/h 5.6 km/h 82% 0.0 mm CLR
03:09 24.9 °C 21.8 °C 1012.7 hPa NNE 2.9 km/h 5.6 km/h 83% 0.0 mm CLR
03:14 24.9 °C 21.8 °C 1012.7 hPa NE 2.9 km/h 3.9 km/h 83% 0.0 mm CLR
03:19 24.9 °C 21.8 °C 1012.7 hPa NNE 2.9 km/h 5.8 km/h 83% 0.0 mm CLR
03:24 24.9 °C 21.8 °C 1012.7 hPa NNE 2.9 km/h   83% 0.0 mm CLR
03:29 24.9 °C 21.8 °C 1012.7 hPa NNE 2.3 km/h   83% 0.0 mm CLR
03:34 24.9 °C 21.8 °C 1012.7 hPa NNE 2.3 km/h   83% 0.0 mm CLR
03:39 24.9 °C 21.8 °C 1012.7 hPa Calm     83% 0.0 mm CLR
03:44 24.9 °C 22.0 °C 1012.7 hPa Calm     84% 0.0 mm CLR
03:49 24.9 °C 21.8 °C 1012.7 hPa Calm   3.7 km/h 83% 0.0 mm CLR
03:54 24.9 °C 21.8 °C 1012.7 hPa Calm   2.3 km/h 83% 0.0 mm CLR
03:59 24.9 °C 21.8 °C 1012.7 hPa Calm     83% 0.0 mm CLR
04:04 24.9 °C 21.8 °C 1012.6 hPa Calm     83% 0.0 mm CLR
04:09 24.9 °C 21.8 °C 1012.6 hPa Calm   2.3 km/h 83% 0.0 mm CLR
04:14 24.9 °C 21.8 °C 1012.6 hPa Calm     83% 0.0 mm CLR
04:19 24.9 °C 21.8 °C 1012.6 hPa Calm     83% 0.0 mm CLR
04:24 24.9 °C 21.8 °C 1012.6 hPa Calm     83% 0.0 mm CLR
04:29 24.9 °C 21.8 °C 1012.6 hPa Calm     83% 0.0 mm CLR
04:34 24.9 °C 21.8 °C 1012.6 hPa Calm     83% 0.0 mm CLR
04:39 24.8 °C 21.7 °C 1012.6 hPa Calm     83% 0.0 mm CLR
04:44 24.8 °C 21.7 °C 1012.6 hPa Calm     83% 0.0 mm CLR
04:49 24.8 °C 21.7 °C 1012.5 hPa Calm     83% 0.0 mm CLR
04:54 24.8 °C 21.7 °C 1012.5 hPa Calm     83% 0.0 mm CLR
04:59 24.8 °C 21.7 °C 1012.5 hPa Calm     83% 0.0 mm CLR
05:04 24.7 °C 21.6 °C 1012.4 hPa Calm     83% 0.0 mm CLR
05:09 24.7 °C 21.6 °C 1012.4 hPa Calm     83% 0.0 mm CLR
05:14 24.7 °C 21.6 °C 1012.4 hPa Calm     83% 0.0 mm CLR
05:19 24.7 °C 21.8 °C 1012.3 hPa Calm     84% 0.0 mm CLR
05:24 24.7 °C 21.8 °C 1012.3 hPa Calm     84% 0.0 mm CLR
05:29 24.7 °C 21.6 °C 1012.3 hPa Calm     83% 0.0 mm CLR
05:34 24.6 °C 21.5 °C 1012.3 hPa Calm     83% 0.0 mm CLR
05:39 24.6 °C 21.7 °C 1012.3 hPa Calm     84% 0.0 mm CLR
05:44 24.6 °C 21.7 °C 1012.3 hPa Calm     84% 0.0 mm CLR
05:49 24.5 °C 21.6 °C 1012.4 hPa Calm     84% 0.0 mm CLR
05:54 24.4 °C 21.5 °C 1012.4 hPa Calm     84% 0.0 mm CLR
05:59 24.4 °C 21.5 °C 1012.4 hPa Calm     84% 0.0 mm CLR
06:04 24.5 °C 21.6 °C 1012.4 hPa Calm     84% 0.0 mm CLR
06:09 24.4 °C 21.5 °C 1012.4 hPa Calm     84% 0.0 mm CLR
06:14 24.4 °C 21.5 °C 1012.4 hPa Calm     84% 0.0 mm CLR
06:19 24.3 °C 21.2 °C 1012.4 hPa Calm     83% 0.0 mm CLR
06:24 24.3 °C 21.2 °C 1012.4 hPa Calm     83% 0.0 mm CLR
06:29 24.2 °C 21.1 °C 1012.4 hPa Calm     83% 0.0 mm CLR
06:34 24.2 °C 21.1 °C 1012.5 hPa Calm   7.4 km/h 83% 0.0 mm CLR
06:39 24.2 °C 21.1 °C 1012.5 hPa SSE 3.9 km/h 5.8 km/h 83% 0.0 mm CLR
06:44 24.2 °C 21.1 °C 1012.5 hPa SSE 3.9 km/h 9.3 km/h 83% 0.0 mm CLR
06:49 24.2 °C 21.1 °C 1012.6 hPa SE 5.0 km/h 7.4 km/h 83% 0.0 mm CLR
06:54 24.2 °C 21.1 °C 1012.6 hPa South 5.0 km/h 7.4 km/h 83% 0.0 mm CLR
06:59 24.2 °C 21.1 °C 1012.6 hPa SSE 5.0 km/h 9.3 km/h 83% 0.0 mm CLR
07:04 24.2 °C 21.1 °C 1012.7 hPa South 5.0 km/h 7.4 km/h 83% 0.0 mm CLR
07:09 24.2 °C 21.1 °C 1012.7 hPa South 5.8 km/h 7.4 km/h 83% 0.0 mm CLR
07:14 24.2 °C 21.1 °C 1012.7 hPa SE 5.8 km/h 5.6 km/h 83% 0.0 mm CLR
07:19 24.2 °C 21.1 °C 1012.8 hPa SE 3.9 km/h 7.4 km/h 83% 0.0 mm CLR
07:24 24.2 °C 21.1 °C 1012.8 hPa SE 3.9 km/h 7.4 km/h 83% 0.0 mm CLR
07:29 24.1 °C 21.1 °C 1012.8 hPa ESE 4.7 km/h 5.6 km/h 83% 0.0 mm CLR
07:34 24.1 °C 21.1 °C 1013.0 hPa SE 4.7 km/h 5.6 km/h 83% 0.0 mm CLR
07:39 24.1 °C 21.1 °C 1013.0 hPa SE 2.9 km/h 5.6 km/h 83% 0.0 mm CLR
07:44 24.2 °C 21.1 °C 1013.0 hPa SE 2.9 km/h   83% 0.0 mm CLR
07:49 24.2 °C 21.1 °C 1013.0 hPa Calm     83% 0.0 mm CLR
07:54 24.2 °C 20.9 °C 1013.0 hPa Calm     82% 0.0 mm CLR
07:59 24.3 °C 21.2 °C 1013.0 hPa Calm     83% 0.0 mm CLR
08:04 24.3 °C 21.2 °C 1013.2 hPa Calm   3.2 km/h 83% 0.0 mm CLR
08:09 24.5 °C 21.2 °C 1013.2 hPa NNE 2.3 km/h 5.6 km/h 82% 0.0 mm CLR
08:14 24.6 °C 21.3 °C 1013.2 hPa NNE 2.3 km/h 5.6 km/h 82% 0.0 mm CLR
08:19 24.7 °C 21.4 °C 1013.1 hPa NE 3.2 km/h 3.7 km/h 82% 0.0 mm CLR
08:24 24.8 °C 21.3 °C 1013.1 hPa North 3.2 km/h 7.4 km/h 81% 0.0 mm CLR
08:29 24.9 °C 21.4 °C 1013.1 hPa North 2.9 km/h 6.4 km/h 81% 0.0 mm CLR
08:34 25.0 °C 21.3 °C 1013.2 hPa North 2.9 km/h 5.8 km/h 80% 0.0 mm CLR
08:39 25.0 °C 21.3 °C 1013.2 hPa NNW 3.9 km/h 7.4 km/h 80% 0.0 mm CLR
08:44 24.9 °C 21.2 °C 1013.2 hPa NNW 3.9 km/h 3.7 km/h 80% 0.0 mm CLR
08:49 25.1 °C 21.6 °C 1013.5 hPa North 2.9 km/h 4.7 km/h 81% 0.0 mm CLR
08:54 25.1 °C 21.4 °C 1013.5 hPa North 2.9 km/h   80% 0.0 mm CLR
08:59 25.2 °C 21.5 °C 1013.5 hPa Calm     80% 0.0 mm CLR
09:04 25.2 °C 21.5 °C 1013.7 hPa Calm     80% 0.0 mm CLR
09:09 25.2 °C 21.5 °C 1013.7 hPa Calm   7.4 km/h 80% 0.0 mm CLR
09:14 25.3 °C 21.6 °C 1013.7 hPa Calm   3.7 km/h 80% 0.0 mm CLR
09:19 25.5 °C 21.8 °C 1013.8 hPa NE 2.3 km/h 2.9 km/h 80% 0.0 mm CLR
09:24 25.6 °C 21.7 °C 1013.8 hPa NE 2.3 km/h 5.6 km/h 79% 0.0 mm CLR
09:29 25.8 °C 21.9 °C 1013.8 hPa NE 2.3 km/h   79% 0.0 mm CLR
09:34 26.1 °C 21.8 °C 1013.9 hPa NW 2.3 km/h 7.4 km/h 77% 0.0 mm CLR
09:39 26.2 °C 21.8 °C 1013.9 hPa NW 2.9 km/h 5.0 km/h 77% 0.0 mm CLR
09:44 26.2 °C 21.6 °C 1013.9 hPa NE 2.9 km/h 7.4 km/h 76% 0.0 mm CLR
09:49 26.4 °C 21.8 °C 1013.9 hPa NE 3.2 km/h 6.4 km/h 76% 0.0 mm CLR
09:54 26.5 °C 21.5 °C 1013.9 hPa NNW 3.2 km/h 7.4 km/h 74% 0.0 mm CLR
09:59 26.7 °C 21.7 °C 1013.9 hPa East 4.7 km/h   74% 0.0 mm CLR
10:04 27.1 °C 21.8 °C 1013.9 hPa NE 4.7 km/h 7.4 km/h 73% 0.0 mm CLR
10:09 27.3 °C 21.6 °C 1013.9 hPa North 2.9 km/h 7.4 km/h 71% 0.0 mm CLR
10:14 27.3 °C 21.3 °C 1013.9 hPa North 2.9 km/h 11.1 km/h 70% 0.0 mm CLR
10:19 27.2 °C 21.3 °C 1013.9 hPa SE 5.0 km/h 9.3 km/h 70% 0.0 mm CLR
10:24 27.3 °C 21.6 °C 1013.9 hPa NNW 5.0 km/h 9.3 km/h 71% 0.0 mm CLR
10:29 27.2 °C 21.3 °C 1013.9 hPa NE 5.8 km/h 9.3 km/h 70% 0.0 mm CLR
10:34 27.2 °C 21.3 °C 1013.8 hPa SE 5.8 km/h 7.4 km/h 70% 0.0 mm CLR
10:39 27.2 °C 21.3 °C 1013.8 hPa ESE 5.0 km/h 7.4 km/h 70% 0.0 mm CLR
10:44 27.2 °C 21.3 °C 1013.8 hPa NNE 5.0 km/h 13.0 km/h 70% 0.0 mm CLR
10:49 27.1 °C 20.9 °C 1013.7 hPa NW 6.9 km/h 5.6 km/h 69% 0.0 mm CLR
10:54 27.2 °C 20.8 °C 1013.7 hPa NE 6.9 km/h 11.1 km/h 68% 0.0 mm CLR
10:59 27.3 °C 20.9 °C 1013.7 hPa ENE 6.4 km/h 9.3 km/h 68% 0.0 mm CLR
11:04 27.4 °C 20.7 °C 1013.6 hPa North 6.4 km/h 11.1 km/h 67% 0.0 mm CLR
11:09 27.6 °C 20.9 °C 1013.6 hPa NW 6.4 km/h 11.1 km/h 67% 0.0 mm CLR
11:14 27.8 °C 20.6 °C 1013.6 hPa NNW 6.4 km/h 11.1 km/h 65% 0.0 mm CLR
11:19 28.1 °C 20.7 °C 1013.8 hPa North 6.4 km/h 9.3 km/h 64% 0.0 mm CLR
11:24 28.4 °C 20.9 °C 1013.8 hPa NNE 6.4 km/h 3.7 km/h 64% 0.0 mm CLR
11:29 28.7 °C 20.4 °C 1013.8 hPa ENE 4.7 km/h 13.0 km/h 61% 0.0 mm CLR
11:34 28.4 °C 20.4 °C 1013.5 hPa NNE 4.7 km/h 16.7 km/h 62% 0.0 mm CLR
11:39 28.3 °C 20.3 °C 1013.5 hPa NE 10.0 km/h 16.7 km/h 62% 0.0 mm CLR
11:44 28.3 °C 20.3 °C 1013.5 hPa North 10.0 km/h 20.4 km/h 62% 0.0 mm CLR
11:49 28.1 °C 20.1 °C 1013.3 hPa NE 11.1 km/h 14.8 km/h 62% 0.0 mm CLR
11:54 28.0 °C 20.3 °C 1013.3 hPa ENE 11.1 km/h 10.0 km/h 63% 0.0 mm CLR
11:59 28.3 °C 20.1 °C 1013.3 hPa North 8.4 km/h 20.4 km/h 61% 0.0 mm CLR
12:04 28.3 °C 19.8 °C 1013.2 hPa NW 8.4 km/h 13.0 km/h 60% 0.0 mm CLR
12:09 28.4 °C 20.2 °C 1013.2 hPa WSW 9.5 km/h 7.4 km/h 61% 0.0 mm CLR
12:14 28.6 °C 20.3 °C 1013.2 hPa ENE 9.5 km/h 18.5 km/h 61% 0.0 mm CLR
12:19 28.9 °C 20.1 °C 1013.2 hPa NE 6.9 km/h 20.4 km/h 59% 0.0 mm CLR
12:24 28.8 °C 20.0 °C 1013.2 hPa NNE 6.9 km/h 11.1 km/h 59% 0.0 mm CLR
12:29 29.0 °C 20.2 °C 1013.2 hPa ENE 8.4 km/h 12.2 km/h 59% 0.0 mm CLR
12:34 29.2 °C 20.1 °C 1013.0 hPa ESE 8.4 km/h 16.7 km/h 58% 0.0 mm CLR
12:39 29.2 °C 20.4 °C 1013.0 hPa SE 11.1 km/h 11.1 km/h 59% 0.0 mm CLR
12:44 29.3 °C 20.2 °C 1013.0 hPa NE 11.1 km/h 16.7 km/h 58% 0.0 mm CLR
12:49 29.5 °C 20.4 °C 1013.0 hPa NE 8.7 km/h 13.0 km/h 58% 0.0 mm CLR
12:54 29.7 °C 20.3 °C 1013.0 hPa NW 8.7 km/h 7.4 km/h 57% 0.0 mm CLR
12:59 29.8 °C 20.4 °C 1013.0 hPa NNE 6.9 km/h 10.3 km/h 57% 0.0 mm CLR
13:04 29.8 °C 20.1 °C 1013.1 hPa NW 6.9 km/h 14.8 km/h 56% 0.0 mm CLR
13:09 29.8 °C 20.4 °C 1013.1 hPa NE 9.5 km/h 20.4 km/h 57% 0.0 mm CLR
13:14 29.6 °C 20.2 °C 1013.1 hPa ENE 9.5 km/h 19.0 km/h 57% 0.0 mm CLR
13:19 29.6 °C 19.9 °C 1013.0 hPa West 13.0 km/h 9.3 km/h 56% 0.0 mm CLR
13:24 29.8 °C 20.1 °C 1013.0 hPa NNE 13.0 km/h 11.1 km/h 56% 0.0 mm CLR
13:29 30.1 °C 19.8 °C 1013.0 hPa North 6.9 km/h 14.8 km/h 54% 0.0 mm CLR
13:34 30.1 °C 19.4 °C 1012.9 hPa ENE 6.9 km/h 14.8 km/h 53% 0.0 mm CLR
13:39 30.3 °C 19.7 °C 1012.9 hPa ENE 10.0 km/h 20.1 km/h 53% 0.0 mm CLR
13:44 30.3 °C 19.7 °C 1012.9 hPa NE 10.0 km/h 15.6 km/h 53% 0.0 mm CLR
13:49 30.4 °C 19.1 °C 1012.9 hPa NE 11.1 km/h 9.3 km/h 51% 0.0 mm CLR
13:54 30.6 °C 19.3 °C 1012.9 hPa ENE 11.1 km/h 9.3 km/h 51% 0.0 mm CLR
13:59 30.8 °C 20.1 °C 1012.9 hPa SE 7.6 km/h 18.5 km/h 53% 0.0 mm CLR
14:04 30.8 °C 19.8 °C 1012.9 hPa East 7.6 km/h 15.6 km/h 52% 0.0 mm CLR
14:09 31.0 °C 19.7 °C 1012.9 hPa East 10.3 km/h 22.2 km/h 51% 0.0 mm CLR
14:14 31.1 °C 19.8 °C 1012.9 hPa ENE 10.3 km/h 14.8 km/h 51% 0.0 mm CLR
14:19 31.1 °C 19.1 °C 1012.8 hPa NE 10.3 km/h 14.8 km/h 49% 0.0 mm CLR
14:24 30.7 °C 19.4 °C 1012.8 hPa ENE 10.3 km/h 24.1 km/h 51% 0.0 mm CLR
14:29 30.6 °C 19.6 °C 1012.8 hPa NE 16.4 km/h 18.5 km/h 52% 0.0 mm CLR
14:34 30.7 °C 19.4 °C 1012.4 hPa NE 16.4 km/h 25.9 km/h 51% 0.0 mm CLR
14:39 30.8 °C 19.5 °C 1012.4 hPa NE 15.6 km/h 25.9 km/h 51% 0.0 mm CLR
14:44 30.8 °C 19.2 °C 1012.4 hPa NE 15.6 km/h 24.1 km/h 50% 0.0 mm CLR
14:49 30.8 °C 19.2 °C 1012.2 hPa ENE 14.8 km/h 25.1 km/h 50% 0.0 mm CLR
14:54 31.0 °C 19.1 °C 1012.2 hPa ENE 14.8 km/h 20.4 km/h 49% 0.0 mm CLR
14:59 31.0 °C 18.7 °C 1012.2 hPa NNW 14.0 km/h 24.1 km/h 48% 0.0 mm CLR
15:04 31.0 °C 19.1 °C 1012.2 hPa East 14.0 km/h 24.1 km/h 49% 0.0 mm CLR
15:09 31.1 °C 19.1 °C 1012.2 hPa NNE 14.0 km/h 21.7 km/h 49% 0.0 mm CLR
15:14 31.2 °C 18.9 °C 1012.2 hPa ENE 14.0 km/h 29.1 km/h 48% 0.0 mm CLR
15:19 30.9 °C 18.6 °C 1012.1 hPa NNE 14.8 km/h 27.8 km/h 48% 0.0 mm CLR
15:24 30.9 °C 18.6 °C 1012.1 hPa ENE 14.8 km/h 25.9 km/h 48% 0.0 mm CLR
15:29 30.9 °C 18.6 °C 1012.1 hPa NNE 16.4 km/h 24.1 km/h 48% 0.0 mm CLR
15:34 30.9 °C 18.6 °C 1011.7 hPa NE 16.4 km/h 22.2 km/h 48% 0.0 mm CLR
15:39 30.9 °C 18.9 °C 1011.7 hPa East 18.0 km/h 22.0 km/h 49% 0.0 mm CLR
15:44 31.2 °C 18.9 °C 1011.7 hPa NE 18.0 km/h 22.2 km/h 48% 0.0 mm CLR
15:49 31.2 °C 18.9 °C 1011.7 hPa ENE 14.8 km/h 22.2 km/h 48% 0.0 mm CLR
15:54 31.2 °C 18.6 °C 1011.7 hPa NE 14.8 km/h 27.8 km/h 47% 0.0 mm CLR
15:59 31.2 °C 18.6 °C 1011.7 hPa NNE 16.1 km/h 20.4 km/h 47% 0.0 mm CLR
16:04 31.3 °C 18.7 °C 1011.7 hPa East 16.1 km/h 27.8 km/h 47% 0.0 mm CLR
16:09 31.3 °C 19.0 °C 1011.7 hPa NE 15.6 km/h 18.5 km/h 48% 0.0 mm CLR
16:14 31.2 °C 18.6 °C 1011.7 hPa NNE 15.6 km/h 22.2 km/h 47% 0.0 mm CLR
16:19 31.4 °C 18.4 °C 1011.5 hPa NE 14.0 km/h 20.4 km/h 46% 0.0 mm CLR
16:24 31.4 °C 18.4 °C 1011.5 hPa ENE 14.0 km/h 22.2 km/h 46% 0.0 mm CLR
16:29 31.6 °C 18.6 °C 1011.5 hPa North 13.0 km/h 22.2 km/h 46% 0.0 mm CLR
16:34 31.4 °C 18.4 °C 1011.2 hPa ENE 13.0 km/h 18.5 km/h 46% 0.0 mm CLR
16:39 31.3 °C 18.7 °C 1011.2 hPa NE 16.4 km/h 23.7 km/h 47% 0.0 mm CLR
16:44 31.3 °C 18.7 °C 1011.2 hPa ENE 16.4 km/h 29.6 km/h 47% 0.0 mm CLR
16:49 31.2 °C 18.6 °C 1011.1 hPa NE 16.4 km/h 23.3 km/h 47% 0.0 mm CLR
16:54 31.3 °C 18.7 °C 1011.1 hPa NE 16.4 km/h 22.2 km/h 47% 0.0 mm CLR
16:59 31.3 °C 18.3 °C 1011.1 hPa NNW 14.8 km/h 22.2 km/h 46% 0.0 mm CLR
17:04 31.3 °C 18.3 °C 1011.0 hPa NNE 14.8 km/h 29.6 km/h 46% 0.0 mm CLR
17:09 31.3 °C 18.3 °C 1011.0 hPa NNE 17.2 km/h 25.9 km/h 46% 0.0 mm CLR
17:14 31.4 °C 18.1 °C 1011.0 hPa NE 17.2 km/h 27.4 km/h 45% 0.0 mm CLR
17:19 31.5 °C 18.1 °C 1010.8 hPa ENE 15.6 km/h 14.8 km/h 45% 0.0 mm CLR
17:24 31.6 °C 17.8 °C 1010.8 hPa NE 15.6 km/h 18.5 km/h 44% 0.0 mm CLR
17:29 31.4 °C 17.7 °C 1010.8 hPa ENE 13.0 km/h 22.2 km/h 44% 0.0 mm CLR
17:34 31.1 °C 17.8 °C 1010.6 hPa NE 13.0 km/h 25.9 km/h 45% 0.0 mm CLR
17:39 31.1 °C 18.1 °C 1010.6 hPa NE 18.0 km/h 22.5 km/h 46% 0.0 mm CLR
17:44 31.1 °C 18.1 °C 1010.6 hPa NNE 18.0 km/h 25.9 km/h 46% 0.0 mm CLR
17:49 31.1 °C 18.1 °C 1010.4 hPa ENE 16.4 km/h 22.0 km/h 46% 0.0 mm CLR
17:54 31.1 °C 17.8 °C 1010.4 hPa NNE 16.4 km/h 18.5 km/h 45% 0.0 mm CLR
17:59 31.1 °C 17.8 °C 1010.4 hPa East 14.8 km/h 20.4 km/h 45% 0.0 mm CLR
18:04 31.2 °C 18.2 °C 1010.4 hPa NE 14.8 km/h 24.1 km/h 46% 0.0 mm CLR
18:09 31.1 °C 18.4 °C 1010.4 hPa NE 14.0 km/h 22.2 km/h 47% 0.0 mm CLR
18:14 30.8 °C 18.2 °C 1010.4 hPa NNE 14.0 km/h 25.9 km/h 47% 0.0 mm CLR
18:19 30.8 °C 18.5 °C 1010.5 hPa ENE 18.3 km/h 22.2 km/h 48% 0.0 mm CLR
18:24 30.8 °C 17.8 °C 1010.5 hPa NE 18.3 km/h 29.6 km/h 46% 0.0 mm CLR
18:29 30.7 °C 18.1 °C 1010.5 hPa NE 16.1 km/h 25.9 km/h 47% 0.0 mm CLR
18:34 30.6 °C 18.3 °C 1010.4 hPa NE 16.1 km/h 25.9 km/h 48% 0.0 mm CLR
18:39 30.6 °C 18.7 °C 1010.4 hPa NNE 17.2 km/h 22.2 km/h 49% 0.0 mm CLR
18:44 30.6 °C 19.0 °C 1010.4 hPa NNE 17.2 km/h 23.3 km/h 50% 0.0 mm CLR
18:49 30.6 °C 19.0 °C 1010.4 hPa NE 16.1 km/h 20.4 km/h 50% 0.0 mm CLR
18:54 30.7 °C 18.8 °C 1010.4 hPa NE 16.1 km/h 24.1 km/h 49% 0.0 mm CLR
18:59 30.6 °C 18.3 °C 1010.4 hPa NNE 15.6 km/h 22.2 km/h 48% 0.0 mm CLR
19:04 30.6 °C 18.7 °C 1010.2 hPa NE 15.6 km/h 18.5 km/h 49% 0.0 mm CLR
19:09 30.5 °C 18.6 °C 1010.2 hPa NNE 14.8 km/h 24.1 km/h 49% 0.0 mm CLR
19:14 30.4 °C 18.5 °C 1010.2 hPa NE 14.8 km/h 22.2 km/h 49% 0.0 mm CLR
19:19 30.3 °C 18.4 °C 1010.2 hPa ENE 14.0 km/h 20.4 km/h 49% 0.0 mm CLR
19:24 30.3 °C 18.4 °C 1010.2 hPa NNW 14.0 km/h 29.6 km/h 49% 0.0 mm CLR
19:29 30.2 °C 18.3 °C 1010.2 hPa NE 14.8 km/h 24.1 km/h 49% 0.0 mm CLR
19:34 30.1 °C 18.6 °C 1010.2 hPa NE 14.8 km/h 25.9 km/h 50% 0.0 mm CLR
19:39 30.0 °C 18.4 °C 1010.2 hPa NE 16.4 km/h 20.4 km/h 50% 0.0 mm CLR
19:44 29.9 °C 18.1 °C 1010.2 hPa NE 16.4 km/h 27.8 km/h 49% 0.0 mm CLR
19:49 29.7 °C 17.8 °C 1010.0 hPa NE 18.0 km/h 24.1 km/h 49% 0.0 mm CLR
19:54 29.6 °C 17.8 °C 1010.0 hPa ENE 18.0 km/h 25.9 km/h 49% 0.0 mm CLR
19:59 29.5 °C 17.3 °C 1010.0 hPa NE 17.2 km/h 24.1 km/h 48% 0.0 mm CLR
20:04 29.4 °C 17.2 °C 1010.0 hPa NE 17.2 km/h 14.8 km/h 48% 0.0 mm CLR
20:09 29.4 °C 17.2 °C 1010.0 hPa NNE 14.8 km/h 18.0 km/h 48% 0.0 mm CLR
20:14 29.4 °C 17.2 °C 1010.0 hPa NNE 14.8 km/h 14.8 km/h 48% 0.0 mm CLR
20:19 29.3 °C 17.2 °C 1010.3 hPa North 14.0 km/h 18.5 km/h 48% 0.0 mm CLR
20:24 29.2 °C 17.1 °C 1010.3 hPa ENE 14.0 km/h 20.4 km/h 48% 0.0 mm CLR
20:29 29.1 °C 16.9 °C 1010.3 hPa NNE 12.2 km/h 18.3 km/h 48% 0.0 mm CLR
20:34 28.9 °C 17.1 °C 1010.3 hPa NNE 12.2 km/h 17.2 km/h 49% 0.0 mm CLR
20:39 28.7 °C 16.9 °C 1010.3 hPa NE 14.0 km/h 23.3 km/h 49% 0.0 mm CLR
20:44 28.6 °C 17.2 °C 1010.3 hPa NNE 14.0 km/h 16.7 km/h 50% 0.0 mm CLR
20:49 28.4 °C 17.3 °C 1010.4 hPa NE 15.6 km/h 24.1 km/h 51% 0.0 mm CLR
20:54 28.2 °C 17.1 °C 1010.4 hPa NNW 15.6 km/h 16.7 km/h 51% 0.0 mm CLR
20:59 28.1 °C 17.6 °C 1010.4 hPa NNE 14.0 km/h 20.9 km/h 53% 0.0 mm CLR
21:04 27.9 °C 17.7 °C 1010.5 hPa NNE 14.0 km/h 18.5 km/h 54% 0.0 mm CLR
21:09 27.7 °C 17.6 °C 1010.5 hPa North 13.0 km/h 16.7 km/h 54% 0.0 mm CLR
21:14 27.7 °C 17.8 °C 1010.5 hPa North 13.0 km/h 16.1 km/h 55% 0.0 mm CLR
21:19 27.5 °C 17.9 °C 1010.7 hPa NNE 12.2 km/h 20.4 km/h 56% 0.0 mm CLR
21:24 27.4 °C 18.1 °C 1010.7 hPa ENE 12.2 km/h 16.7 km/h 57% 0.0 mm CLR
21:29 27.3 °C 18.3 °C 1010.7 hPa NE 12.2 km/h 18.5 km/h 58% 0.0 mm CLR
21:34 27.2 °C 18.2 °C 1010.9 hPa ENE 12.2 km/h 18.5 km/h 58% 0.0 mm CLR
21:39 27.1 °C 18.1 °C 1010.9 hPa NE 13.0 km/h 16.7 km/h 58% 0.0 mm CLR
21:44 27.0 °C 18.1 °C 1010.9 hPa NE 13.0 km/h 18.5 km/h 58% 0.0 mm CLR
21:49 26.9 °C 17.9 °C 1011.1 hPa NE 11.9 km/h 20.4 km/h 58% 0.0 mm CLR
21:54 26.8 °C 17.8 °C 1011.1 hPa ENE 11.9 km/h 14.0 km/h 58% 0.0 mm CLR
21:59 26.7 °C 18.3 °C 1011.1 hPa NE 11.1 km/h 22.2 km/h 60% 0.0 mm CLR
22:04 26.6 °C 18.4 °C 1011.2 hPa NNE 11.1 km/h 16.7 km/h 61% 0.0 mm CLR
22:09 26.6 °C 18.4 °C 1011.2 hPa ENE 11.9 km/h 16.7 km/h 61% 0.0 mm CLR
22:14 26.5 °C 18.6 °C 1011.2 hPa NNE 11.9 km/h 14.8 km/h 62% 0.0 mm CLR
22:19 26.4 °C 19.1 °C 1011.5 hPa ENE 11.1 km/h 18.5 km/h 64% 0.0 mm CLR
22:24 26.4 °C 19.3 °C 1011.5 hPa NE 11.1 km/h 14.8 km/h 65% 0.0 mm CLR
22:29 26.3 °C 19.4 °C 1011.5 hPa NE 11.1 km/h 13.0 km/h 66% 0.0 mm CLR
22:34 26.2 °C 19.6 °C 1011.9 hPa NE 11.1 km/h 16.7 km/h 67% 0.0 mm CLR
22:39 26.1 °C 19.5 °C 1011.9 hPa NE 13.0 km/h 18.5 km/h 67% 0.0 mm CLR
22:44 26.1 °C 19.5 °C 1011.9 hPa NE 13.0 km/h 14.8 km/h 67% 0.0 mm CLR
22:49 26.1 °C 19.7 °C 1012.1 hPa ENE 10.3 km/h 11.1 km/h 68% 0.0 mm CLR
22:54 26.1 °C 19.7 °C 1012.1 hPa NE 10.3 km/h 14.8 km/h 68% 0.0 mm CLR
22:59 26.0 °C 19.6 °C 1012.1 hPa ENE 8.7 km/h 14.8 km/h 68% 0.0 mm CLR
23:04 26.0 °C 19.9 °C 1012.5 hPa East 8.7 km/h 9.3 km/h 69% 0.0 mm CLR
23:09 25.9 °C 19.8 °C 1012.5 hPa ENE 7.6 km/h 7.4 km/h 69% 0.0 mm CLR
23:14 25.9 °C 20.0 °C 1012.5 hPa ENE 7.6 km/h 16.7 km/h 70% 0.0 mm CLR
23:19 25.8 °C 19.9 °C 1012.6 hPa ESE 8.4 km/h 11.1 km/h 70% 0.0 mm CLR
23:24 25.8 °C 20.2 °C 1012.6 hPa NE 8.4 km/h 14.8 km/h 71% 0.0 mm CLR
23:29 25.7 °C 20.1 °C 1012.6 hPa ESE 7.6 km/h 7.4 km/h 71% 0.0 mm CLR
23:34 25.7 °C 20.1 °C 1012.8 hPa NE 7.6 km/h 7.4 km/h 71% 0.0 mm CLR
23:39 25.6 °C 20.2 °C 1012.8 hPa NE 5.8 km/h 7.4 km/h 72% 0.0 mm CLR
23:44 25.6 °C 20.4 °C 1012.8 hPa NE 5.8 km/h 11.1 km/h 73% 0.0 mm CLR
23:49 25.5 °C 20.3 °C 1012.7 hPa NNE 5.8 km/h 7.4 km/h 73% 0.0 mm CLR
23:54 25.4 °C 20.4 °C 1012.7 hPa NNE 5.8 km/h 9.3 km/h 74% 0.0 mm CLR
23:59 25.5 °C 20.5 °C 1012.7 hPa NE 5.8 km/h 7.6 km/h 74% 0.0 mm CLR
Murcia-Puente Tocinos, España
Compliments of Weather Underground - 2.75 mb

La estación de MeteoMurcia.com, publica sus datos en los siguientes proyectos:

Weather Underground PWS IMURCIAP2 Meteoclimatic www.awekas.at

W3Counter
Web Analytics